sensor_id;sensor_type;location;lat;lon;timestamp;pressure;altitude;pressure_sealevel;temperature;humidity
12213;BME280;6169;44.158;22.788;2023-09-30T00:03:42;101474.47;;;20.15;37.75
12213;BME280;6169;44.158;22.788;2023-09-30T00:08:45;101477.06;;;20.46;37.42
12213;BME280;6169;44.158;22.788;2023-09-30T00:13:48;101470.47;;;20.86;36.82
12213;BME280;6169;44.158;22.788;2023-09-30T00:18:50;101473.72;;;20.93;36.84
12213;BME280;6169;44.158;22.788;2023-09-30T00:23:55;101478.28;;;20.69;37.27
12213;BME280;6169;44.158;22.788;2023-09-30T00:28:57;101483.44;;;21.20;36.80
12213;BME280;6169;44.158;22.788;2023-09-30T00:34:00;101483.03;;;21.37;36.27
12213;BME280;6169;44.158;22.788;2023-09-30T00:39:03;101464.81;;;21.02;36.75
12213;BME280;6169;44.158;22.788;2023-09-30T00:44:06;101472.28;;;21.01;36.90
12213;BME280;6169;44.158;22.788;2023-09-30T00:49:10;101469.59;;;21.25;36.32
12213;BME280;6169;44.158;22.788;2023-09-30T00:54:14;101471.31;;;21.45;36.26
12213;BME280;6169;44.158;22.788;2023-09-30T00:59:17;101467.16;;;21.19;36.54
12213;BME280;6169;44.158;22.788;2023-09-30T01:04:20;101445.53;;;21.26;36.20
12213;BME280;6169;44.158;22.788;2023-09-30T01:09:24;101465.78;;;21.45;36.38
12213;BME280;6169;44.158;22.788;2023-09-30T01:14:26;101470.41;;;21.26;36.13
12213;BME280;6169;44.158;22.788;2023-09-30T01:19:29;101472.44;;;21.15;36.75
12213;BME280;6169;44.158;22.788;2023-09-30T01:24:38;101479.66;;;21.40;36.47
12213;BME280;6169;44.158;22.788;2023-09-30T01:29:41;101477.69;;;21.16;36.40
12213;BME280;6169;44.158;22.788;2023-09-30T01:34:43;101474.41;;;21.09;36.73
12213;BME280;6169;44.158;22.788;2023-09-30T01:39:46;101476.19;;;20.95;36.58
12213;BME280;6169;44.158;22.788;2023-09-30T01:44:51;101488.44;;;20.84;37.04
12213;BME280;6169;44.158;22.788;2023-09-30T01:49:53;101477.44;;;20.74;37.11
12213;BME280;6169;44.158;22.788;2023-09-30T01:54:57;101479.69;;;21.06;36.65
12213;BME280;6169;44.158;22.788;2023-09-30T01:59:59;101474.94;;;20.77;37.07
12213;BME280;6169;44.158;22.788;2023-09-30T02:05:01;101476.53;;;20.88;37.01
12213;BME280;6169;44.158;22.788;2023-09-30T02:10:06;101465.72;;;20.47;37.29
12213;BME280;6169;44.158;22.788;2023-09-30T02:15:09;101480.16;;;20.84;36.48
12213;BME280;6169;44.158;22.788;2023-09-30T02:20:12;101484.94;;;20.08;37.46
12213;BME280;6169;44.158;22.788;2023-09-30T02:25:21;101480.09;;;19.69;38.68
12213;BME280;6169;44.158;22.788;2023-09-30T02:30:23;101426.63;;;19.60;38.34
12213;BME280;6169;44.158;22.788;2023-09-30T02:35:26;101472.59;;;20.55;37.16
12213;BME280;6169;44.158;22.788;2023-09-30T02:40:29;101467.09;;;20.45;37.15
12213;BME280;6169;44.158;22.788;2023-09-30T02:45:32;101464.13;;;20.36;36.99
12213;BME280;6169;44.158;22.788;2023-09-30T02:50:34;101459.41;;;20.37;37.26
12213;BME280;6169;44.158;22.788;2023-09-30T02:55:38;101460.53;;;20.41;36.91
12213;BME280;6169;44.158;22.788;2023-09-30T03:00:40;101468.28;;;20.34;37.03
12213;BME280;6169;44.158;22.788;2023-09-30T03:05:42;101471.50;;;20.51;36.45
12213;BME280;6169;44.158;22.788;2023-09-30T03:10:47;101470.75;;;19.65;38.31
12213;BME280;6169;44.158;22.788;2023-09-30T03:15:49;101463.28;;;19.60;38.56
12213;BME280;6169;44.158;22.788;2023-09-30T03:20:57;101464.53;;;20.09;37.36
12213;BME280;6169;44.158;22.788;2023-09-30T03:26:02;101473.63;;;20.04;37.71
12213;BME280;6169;44.158;22.788;2023-09-30T03:31:04;101369.25;;;19.57;37.42
12213;BME280;6169;44.158;22.788;2023-09-30T03:36:08;101478.84;;;20.21;37.48
12213;BME280;6169;44.158;22.788;2023-09-30T03:41:13;101477.13;;;20.31;37.12
12213;BME280;6169;44.158;22.788;2023-09-30T03:46:15;101471.25;;;19.77;38.40
12213;BME280;6169;44.158;22.788;2023-09-30T03:51:17;101476.41;;;19.99;38.12
12213;BME280;6169;44.158;22.788;2023-09-30T03:56:21;101471.69;;;20.10;38.01
12213;BME280;6169;44.158;22.788;2023-09-30T04:01:23;101478.28;;;20.24;37.80
12213;BME280;6169;44.158;22.788;2023-09-30T04:06:27;101487.53;;;20.49;37.44
12213;BME280;6169;44.158;22.788;2023-09-30T04:11:31;101477.03;;;20.51;37.41
12213;BME280;6169;44.158;22.788;2023-09-30T04:16:34;101482.28;;;20.47;37.29
12213;BME280;6169;44.158;22.788;2023-09-30T04:21:37;101485.06;;;20.47;37.24
12213;BME280;6169;44.158;22.788;2023-09-30T04:26:41;101477.72;;;20.22;37.92
12213;BME280;6169;44.158;22.788;2023-09-30T04:31:43;101472.97;;;20.38;37.68
12213;BME280;6169;44.158;22.788;2023-09-30T04:36:46;101479.50;;;20.53;37.54
12213;BME280;6169;44.158;22.788;2023-09-30T04:41:49;101493.91;;;20.44;37.49
12213;BME280;6169;44.158;22.788;2023-09-30T04:46:52;101487.34;;;20.35;37.72
12213;BME280;6169;44.158;22.788;2023-09-30T04:51:55;101499.06;;;20.61;37.37
12213;BME280;6169;44.158;22.788;2023-09-30T04:56:58;101504.66;;;20.51;37.44
12213;BME280;6169;44.158;22.788;2023-09-30T05:02:01;101508.53;;;20.45;37.53
12213;BME280;6169;44.158;22.788;2023-09-30T05:07:04;101506.19;;;20.67;37.46
12213;BME280;6169;44.158;22.788;2023-09-30T05:12:08;101519.09;;;20.82;37.19
12213;BME280;6169;44.158;22.788;2023-09-30T05:17:10;101514.25;;;21.08;36.89
12213;BME280;6169;44.158;22.788;2023-09-30T05:22:12;101514.34;;;20.48;38.18
12213;BME280;6169;44.158;22.788;2023-09-30T05:27:17;101505.63;;;20.21;39.31
12213;BME280;6169;44.158;22.788;2023-09-30T05:32:19;101510.94;;;19.92;40.73
12213;BME280;6169;44.158;22.788;2023-09-30T05:37:21;101523.47;;;20.39;39.69
12213;BME280;6169;44.158;22.788;2023-09-30T05:42:25;101524.94;;;20.26;40.31
12213;BME280;6169;44.158;22.788;2023-09-30T05:47:27;101527.81;;;20.60;39.38
12213;BME280;6169;44.158;22.788;2023-09-30T05:52:29;101539.13;;;20.59;39.27
12213;BME280;6169;44.158;22.788;2023-09-30T05:57:33;101538.06;;;20.49;39.67
12213;BME280;6169;44.158;22.788;2023-09-30T06:02:36;101532.66;;;20.79;39.05
12213;BME280;6169;44.158;22.788;2023-09-30T06:07:38;101544.25;;;20.81;38.45
12213;BME280;6169;44.158;22.788;2023-09-30T06:12:43;101543.72;;;20.84;38.33
12213;BME280;6169;44.158;22.788;2023-09-30T06:17:45;101549.22;;;20.79;38.26
12213;BME280;6169;44.158;22.788;2023-09-30T06:22:48;101548.97;;;20.85;37.71
12213;BME280;6169;44.158;22.788;2023-09-30T06:27:52;101558.56;;;20.93;38.09
12213;BME280;6169;44.158;22.788;2023-09-30T06:32:55;101553.97;;;20.73;38.66
12213;BME280;6169;44.158;22.788;2023-09-30T06:37:57;101561.31;;;20.93;38.12
12213;BME280;6169;44.158;22.788;2023-09-30T06:43:01;101565.28;;;21.21;37.96
12213;BME280;6169;44.158;22.788;2023-09-30T06:48:04;101566.41;;;21.20;38.12
12213;BME280;6169;44.158;22.788;2023-09-30T06:53:06;101561.66;;;21.60;37.46
12213;BME280;6169;44.158;22.788;2023-09-30T06:58:11;101564.19;;;21.56;37.45
12213;BME280;6169;44.158;22.788;2023-09-30T07:03:14;101569.97;;;21.89;36.35
12213;BME280;6169;44.158;22.788;2023-09-30T07:08:17;101575.25;;;21.56;36.98
12213;BME280;6169;44.158;22.788;2023-09-30T07:13:20;101570.84;;;22.09;36.26
12213;BME280;6169;44.158;22.788;2023-09-30T07:18:23;101561.75;;;21.79;36.13
12213;BME280;6169;44.158;22.788;2023-09-30T07:23:25;101559.41;;;22.63;35.03
12213;BME280;6169;44.158;22.788;2023-09-30T07:28:33;101564.03;;;22.49;34.38
12213;BME280;6169;44.158;22.788;2023-09-30T07:33:35;101565.34;;;22.57;35.08
12213;BME280;6169;44.158;22.788;2023-09-30T07:38:37;101565.44;;;22.89;34.40
12213;BME280;6169;44.158;22.788;2023-09-30T07:43:40;101562.94;;;22.69;34.75
12213;BME280;6169;44.158;22.788;2023-09-30T07:48:43;101553.66;;;22.98;36.51
12213;BME280;6169;44.158;22.788;2023-09-30T07:53:45;101560.09;;;23.12;34.93
12213;BME280;6169;44.158;22.788;2023-09-30T07:58:48;101567.06;;;23.09;37.05
12213;BME280;6169;44.158;22.788;2023-09-30T08:03:51;101571.34;;;23.72;33.82
12213;BME280;6169;44.158;22.788;2023-09-30T08:08:53;101565.28;;;23.84;32.11
12213;BME280;6169;44.158;22.788;2023-09-30T08:13:57;101561.56;;;23.89;32.85
12213;BME280;6169;44.158;22.788;2023-09-30T08:18:59;101569.66;;;24.45;33.77
12213;BME280;6169;44.158;22.788;2023-09-30T08:24:02;101562.66;;;24.84;33.46
12213;BME280;6169;44.158;22.788;2023-09-30T08:29:05;101556.50;;;25.10;32.27
12213;BME280;6169;44.158;22.788;2023-09-30T08:34:08;101563.69;;;25.25;30.82
12213;BME280;6169;44.158;22.788;2023-09-30T08:39:10;101560.88;;;25.02;32.10
12213;BME280;6169;44.158;22.788;2023-09-30T08:44:14;101555.66;;;25.23;30.34
12213;BME280;6169;44.158;22.788;2023-09-30T08:49:18;101549.09;;;25.73;30.13
12213;BME280;6169;44.158;22.788;2023-09-30T08:54:21;101561.84;;;25.96;28.78
12213;BME280;6169;44.158;22.788;2023-09-30T08:59:25;101552.50;;;25.92;30.09
12213;BME280;6169;44.158;22.788;2023-09-30T09:04:28;101555.31;;;26.49;29.24
12213;BME280;6169;44.158;22.788;2023-09-30T09:09:31;101549.44;;;26.11;30.10
12213;BME280;6169;44.158;22.788;2023-09-30T09:14:39;101535.63;;;26.55;30.28
12213;BME280;6169;44.158;22.788;2023-09-30T09:19:41;101531.03;;;26.76;27.66
12213;BME280;6169;44.158;22.788;2023-09-30T09:24:44;101530.75;;;27.04;26.92
12213;BME280;6169;44.158;22.788;2023-09-30T09:29:48;101530.41;;;27.14;28.88
12213;BME280;6169;44.158;22.788;2023-09-30T09:35:01;101521.91;;;27.02;27.01
12213;BME280;6169;44.158;22.788;2023-09-30T09:40:05;101518.22;;;27.36;26.30
12213;BME280;6169;44.158;22.788;2023-09-30T09:45:10;101519.19;;;27.96;25.16
12213;BME280;6169;44.158;22.788;2023-09-30T09:50:14;101516.97;;;27.80;25.33
12213;BME280;6169;44.158;22.788;2023-09-30T09:55:17;101511.91;;;28.33;24.34
12213;BME280;6169;44.158;22.788;2023-09-30T10:00:23;101510.16;;;28.29;25.84
12213;BME280;6169;44.158;22.788;2023-09-30T10:05:26;101504.25;;;28.21;25.93
12213;BME280;6169;44.158;22.788;2023-09-30T10:10:30;101338.31;;;27.54;25.97
12213;BME280;6169;44.158;22.788;2023-09-30T10:15:41;101458.03;;;28.24;25.12
12213;BME280;6169;44.158;22.788;2023-09-30T10:20:44;101480.81;;;28.35;24.71
12213;BME280;6169;44.158;22.788;2023-09-30T10:25:49;101483.91;;;28.84;24.44
12213;BME280;6169;44.158;22.788;2023-09-30T10:31:15;101479.59;;;29.07;23.27
12213;BME280;6169;44.158;22.788;2023-09-30T10:36:27;101466.47;;;28.99;22.84
12213;BME280;6169;44.158;22.788;2023-09-30T10:41:51;101463.53;;;28.96;23.19
12213;BME280;6169;44.158;22.788;2023-09-30T10:46:55;101461.44;;;29.38;22.58
12213;BME280;6169;44.158;22.788;2023-09-30T10:51:58;101446.25;;;29.14;22.02
12213;BME280;6169;44.158;22.788;2023-09-30T10:57:01;101433.59;;;29.66;21.71
12213;BME280;6169;44.158;22.788;2023-09-30T11:02:18;101429.53;;;29.76;21.63
12213;BME280;6169;44.158;22.788;2023-09-30T11:07:22;101423.78;;;30.09;20.79
12213;BME280;6169;44.158;22.788;2023-09-30T11:12:25;101413.38;;;29.97;21.27
12213;BME280;6169;44.158;22.788;2023-09-30T11:17:29;101404.41;;;30.73;20.61
12213;BME280;6169;44.158;22.788;2023-09-30T11:22:32;101397.09;;;30.84;20.35
12213;BME280;6169;44.158;22.788;2023-09-30T11:27:35;101388.66;;;30.84;20.87
12213;BME280;6169;44.158;22.788;2023-09-30T11:32:39;101377.38;;;31.60;19.99
12213;BME280;6169;44.158;22.788;2023-09-30T11:37:42;101373.50;;;31.64;19.46
12213;BME280;6169;44.158;22.788;2023-09-30T11:43:06;101369.91;;;31.16;19.31
12213;BME280;6169;44.158;22.788;2023-09-30T11:48:18;101359.28;;;31.25;19.31
12213;BME280;6169;44.158;22.788;2023-09-30T11:53:21;101350.03;;;30.49;19.16
12213;BME280;6169;44.158;22.788;2023-09-30T11:58:23;101346.72;;;31.19;18.80
12213;BME280;6169;44.158;22.788;2023-09-30T12:03:27;101328.97;;;31.50;19.10
12213;BME280;6169;44.158;22.788;2023-09-30T12:08:29;101332.34;;;31.56;18.20
12213;BME280;6169;44.158;22.788;2023-09-30T12:13:31;101321.09;;;32.11;17.91
12213;BME280;6169;44.158;22.788;2023-09-30T12:18:35;101322.25;;;32.06;18.56
12213;BME280;6169;44.158;22.788;2023-09-30T12:23:37;101315.44;;;31.91;18.29
12213;BME280;6169;44.158;22.788;2023-09-30T12:28:39;101308.88;;;32.22;17.38
12213;BME280;6169;44.158;22.788;2023-09-30T12:33:43;101304.84;;;32.20;16.66
12213;BME280;6169;44.158;22.788;2023-09-30T12:38:45;101294.72;;;32.38;16.86
12213;BME280;6169;44.158;22.788;2023-09-30T12:43:47;101287.78;;;31.74;17.56
12213;BME280;6169;44.158;22.788;2023-09-30T12:48:51;101298.03;;;32.01;17.91
12213;BME280;6169;44.158;22.788;2023-09-30T12:53:53;101284.63;;;32.14;17.69
12213;BME280;6169;44.158;22.788;2023-09-30T12:58:56;101238.50;;;31.80;18.24
12213;BME280;6169;44.158;22.788;2023-09-30T13:03:59;101279.88;;;31.99;18.47
12213;BME280;6169;44.158;22.788;2023-09-30T13:09:02;101276.09;;;31.91;18.80
12213;BME280;6169;44.158;22.788;2023-09-30T13:14:05;101281.56;;;32.42;18.81
12213;BME280;6169;44.158;22.788;2023-09-30T13:19:09;101266.38;;;32.28;18.85
12213;BME280;6169;44.158;22.788;2023-09-30T13:24:11;101271.25;;;32.50;18.61
12213;BME280;6169;44.158;22.788;2023-09-30T13:29:13;101256.50;;;32.80;18.43
12213;BME280;6169;44.158;22.788;2023-09-30T13:34:18;101247.16;;;32.30;18.72
12213;BME280;6169;44.158;22.788;2023-09-30T13:39:20;101253.69;;;31.95;18.72
12213;BME280;6169;44.158;22.788;2023-09-30T13:44:24;101251.81;;;32.22;18.02
12213;BME280;6169;44.158;22.788;2023-09-30T13:49:28;101238.00;;;31.55;18.19
12213;BME280;6169;44.158;22.788;2023-09-30T13:54:31;101232.88;;;31.80;18.10
12213;BME280;6169;44.158;22.788;2023-09-30T13:59:34;101239.63;;;31.56;18.32
12213;BME280;6169;44.158;22.788;2023-09-30T14:04:38;101238.69;;;31.52;18.07
12213;BME280;6169;44.158;22.788;2023-09-30T14:09:40;101234.91;;;31.25;18.30
12213;BME280;6169;44.158;22.788;2023-09-30T14:14:43;101235.53;;;31.18;18.82
12213;BME280;6169;44.158;22.788;2023-09-30T14:19:46;101231.84;;;31.14;18.83
12213;BME280;6169;44.158;22.788;2023-09-30T14:24:49;101232.91;;;31.61;18.34
12213;BME280;6169;44.158;22.788;2023-09-30T14:29:51;101230.84;;;31.22;18.63
12213;BME280;6169;44.158;22.788;2023-09-30T14:34:55;101235.69;;;30.74;18.91
12213;BME280;6169;44.158;22.788;2023-09-30T14:39:58;101231.75;;;30.31;19.37
12213;BME280;6169;44.158;22.788;2023-09-30T14:45:00;101240.13;;;30.15;20.60
12213;BME280;6169;44.158;22.788;2023-09-30T14:50:06;101232.00;;;30.26;20.77
12213;BME280;6169;44.158;22.788;2023-09-30T14:55:08;101224.91;;;29.48;21.64
12213;BME280;6169;44.158;22.788;2023-09-30T15:00:12;101241.47;;;29.65;20.69
12213;BME280;6169;44.158;22.788;2023-09-30T15:05:16;101243.50;;;29.28;21.15
12213;BME280;6169;44.158;22.788;2023-09-30T15:10:18;101249.09;;;29.03;21.19
12213;BME280;6169;44.158;22.788;2023-09-30T15:15:20;101241.84;;;29.39;20.85
12213;BME280;6169;44.158;22.788;2023-09-30T15:20:24;101257.00;;;29.01;21.38
12213;BME280;6169;44.158;22.788;2023-09-30T15:25:26;101257.28;;;29.08;21.34
12213;BME280;6169;44.158;22.788;2023-09-30T15:30:29;101255.63;;;28.95;22.05
12213;BME280;6169;44.158;22.788;2023-09-30T15:35:33;101259.13;;;28.92;22.27
12213;BME280;6169;44.158;22.788;2023-09-30T15:40:51;101248.03;;;28.83;22.60
12213;BME280;6169;44.158;22.788;2023-09-30T15:45:53;101256.44;;;28.96;22.99
12213;BME280;6169;44.158;22.788;2023-09-30T15:50:57;101258.38;;;28.58;23.84
12213;BME280;6169;44.158;22.788;2023-09-30T15:55:59;101247.84;;;28.43;24.37
12213;BME280;6169;44.158;22.788;2023-09-30T16:01:02;101253.22;;;27.94;24.89
12213;BME280;6169;44.158;22.788;2023-09-30T16:06:06;101254.91;;;27.95;24.94
12213;BME280;6169;44.158;22.788;2023-09-30T16:11:08;101251.78;;;27.75;25.00
12213;BME280;6169;44.158;22.788;2023-09-30T16:16:10;101260.47;;;27.95;24.78
12213;BME280;6169;44.158;22.788;2023-09-30T16:21:14;101255.84;;;27.57;25.76
12213;BME280;6169;44.158;22.788;2023-09-30T16:26:16;101256.56;;;27.15;26.45
12213;BME280;6169;44.158;22.788;2023-09-30T16:31:18;101255.72;;;26.94;26.75
12213;BME280;6169;44.158;22.788;2023-09-30T16:36:22;101256.53;;;26.39;27.49
12213;BME280;6169;44.158;22.788;2023-09-30T16:41:24;101258.00;;;26.19;27.75
12213;BME280;6169;44.158;22.788;2023-09-30T16:46:27;101256.06;;;25.93;27.92
12213;BME280;6169;44.158;22.788;2023-09-30T16:51:30;101253.63;;;26.00;27.67
12213;BME280;6169;44.158;22.788;2023-09-30T16:56:33;101262.44;;;25.76;28.09
12213;BME280;6169;44.158;22.788;2023-09-30T17:01:35;101264.00;;;25.25;28.84
12213;BME280;6169;44.158;22.788;2023-09-30T17:06:40;101263.53;;;24.92;29.62
12213;BME280;6169;44.158;22.788;2023-09-30T17:11:42;101278.69;;;24.77;30.00
12213;BME280;6169;44.158;22.788;2023-09-30T17:16:44;101278.91;;;24.89;29.49
12213;BME280;6169;44.158;22.788;2023-09-30T17:21:48;101279.13;;;24.70;30.00
12213;BME280;6169;44.158;22.788;2023-09-30T17:26:50;101283.94;;;24.87;29.68
12213;BME280;6169;44.158;22.788;2023-09-30T17:31:52;101291.78;;;24.77;30.36
12213;BME280;6169;44.158;22.788;2023-09-30T17:36:56;101285.47;;;24.93;30.17
12213;BME280;6169;44.158;22.788;2023-09-30T17:41:58;101291.13;;;24.80;30.80
12213;BME280;6169;44.158;22.788;2023-09-30T17:47:01;101297.34;;;24.54;31.20
12213;BME280;6169;44.158;22.788;2023-09-30T17:52:04;101300.84;;;24.37;31.33
12213;BME280;6169;44.158;22.788;2023-09-30T17:57:06;101313.63;;;24.24;31.51
12213;BME280;6169;44.158;22.788;2023-09-30T18:02:09;101307.50;;;24.14;31.81
12213;BME280;6169;44.158;22.788;2023-09-30T18:07:12;101303.03;;;24.26;31.83
12213;BME280;6169;44.158;22.788;2023-09-30T18:12:15;101306.13;;;24.47;31.17
12213;BME280;6169;44.158;22.788;2023-09-30T18:17:17;101301.72;;;24.24;31.75
12213;BME280;6169;44.158;22.788;2023-09-30T18:22:21;101301.16;;;23.99;31.94
12213;BME280;6169;44.158;22.788;2023-09-30T18:27:23;101298.72;;;23.98;31.82
12213;BME280;6169;44.158;22.788;2023-09-30T18:32:25;101305.06;;;23.62;32.46
12213;BME280;6169;44.158;22.788;2023-09-30T18:37:29;101310.97;;;23.47;32.92
12213;BME280;6169;44.158;22.788;2023-09-30T18:42:31;101310.41;;;23.58;32.78
12213;BME280;6169;44.158;22.788;2023-09-30T18:47:33;101310.53;;;23.53;32.83
12213;BME280;6169;44.158;22.788;2023-09-30T18:52:37;101314.81;;;23.32;33.18
12213;BME280;6169;44.158;22.788;2023-09-30T18:57:39;101308.88;;;23.11;33.86
12213;BME280;6169;44.158;22.788;2023-09-30T19:02:41;101311.09;;;22.95;33.88
12213;BME280;6169;44.158;22.788;2023-09-30T19:07:45;101314.81;;;22.90;33.97
12213;BME280;6169;44.158;22.788;2023-09-30T19:12:47;101320.84;;;22.92;33.88
12213;BME280;6169;44.158;22.788;2023-09-30T19:17:49;101317.09;;;23.02;34.08
12213;BME280;6169;44.158;22.788;2023-09-30T19:22:53;101326.31;;;22.98;34.08
12213;BME280;6169;44.158;22.788;2023-09-30T19:27:55;101327.38;;;23.02;34.17
12213;BME280;6169;44.158;22.788;2023-09-30T19:32:58;101323.03;;;23.09;33.88
12213;BME280;6169;44.158;22.788;2023-09-30T19:38:01;101327.34;;;22.88;34.29
12213;BME280;6169;44.158;22.788;2023-09-30T19:43:03;101276.25;;;22.75;33.71
12213;BME280;6169;44.158;22.788;2023-09-30T19:48:06;101326.41;;;22.27;35.01
12213;BME280;6169;44.158;22.788;2023-09-30T19:53:09;101328.34;;;22.26;34.90
12213;BME280;6169;44.158;22.788;2023-09-30T19:58:12;101329.00;;;22.37;34.61
12213;BME280;6169;44.158;22.788;2023-09-30T20:03:14;101325.03;;;21.87;35.35
12213;BME280;6169;44.158;22.788;2023-09-30T20:08:17;101331.91;;;21.70;35.92
12213;BME280;6169;44.158;22.788;2023-09-30T20:13:19;101302.53;;;21.26;36.11
12213;BME280;6169;44.158;22.788;2023-09-30T20:18:21;101337.69;;;21.50;36.61
12213;BME280;6169;44.158;22.788;2023-09-30T20:23:25;101350.94;;;21.96;35.89
12213;BME280;6169;44.158;22.788;2023-09-30T20:28:28;101347.38;;;21.71;35.49
12213;BME280;6169;44.158;22.788;2023-09-30T20:33:30;101351.31;;;21.89;35.46
12213;BME280;6169;44.158;22.788;2023-09-30T20:38:34;101344.56;;;21.52;35.70
12213;BME280;6169;44.158;22.788;2023-09-30T20:43:36;101349.22;;;21.57;35.51
12213;BME280;6169;44.158;22.788;2023-09-30T20:48:40;101349.84;;;21.73;35.17
12213;BME280;6169;44.158;22.788;2023-09-30T20:53:44;101346.56;;;22.09;35.06
12213;BME280;6169;44.158;22.788;2023-09-30T20:58:49;101355.91;;;21.75;35.27
12213;BME280;6169;44.158;22.788;2023-09-30T21:03:51;101346.91;;;22.26;34.91
12213;BME280;6169;44.158;22.788;2023-09-30T21:08:55;101346.69;;;22.22;34.44
12213;BME280;6169;44.158;22.788;2023-09-30T21:13:57;101346.75;;;22.36;34.59
12213;BME280;6169;44.158;22.788;2023-09-30T21:19:00;101343.69;;;22.19;34.70
12213;BME280;6169;44.158;22.788;2023-09-30T21:24:04;101347.41;;;22.28;34.56
12213;BME280;6169;44.158;22.788;2023-09-30T21:29:06;101351.81;;;22.10;34.47
12213;BME280;6169;44.158;22.788;2023-09-30T21:34:08;101352.59;;;22.16;34.38
12213;BME280;6169;44.158;22.788;2023-09-30T21:39:13;101349.78;;;21.97;34.52
12213;BME280;6169;44.158;22.788;2023-09-30T21:44:16;101344.81;;;22.18;34.66
12213;BME280;6169;44.158;22.788;2023-09-30T21:49:18;101339.00;;;22.14;34.81
12213;BME280;6169;44.158;22.788;2023-09-30T21:54:22;101347.31;;;22.14;34.18
12213;BME280;6169;44.158;22.788;2023-09-30T21:59:24;101337.75;;;22.07;33.98
12213;BME280;6169;44.158;22.788;2023-09-30T22:04:26;101333.06;;;22.26;35.05
12213;BME280;6169;44.158;22.788;2023-09-30T22:09:31;101336.88;;;22.30;34.47
12213;BME280;6169;44.158;22.788;2023-09-30T22:14:34;101332.00;;;22.41;34.20
12213;BME280;6169;44.158;22.788;2023-09-30T22:19:36;101331.56;;;22.15;34.22
12213;BME280;6169;44.158;22.788;2023-09-30T22:24:40;101333.56;;;22.28;34.18
12213;BME280;6169;44.158;22.788;2023-09-30T22:29:42;101333.44;;;22.19;35.00
12213;BME280;6169;44.158;22.788;2023-09-30T22:34:45;101336.34;;;22.28;34.66
12213;BME280;6169;44.158;22.788;2023-09-30T22:39:48;101336.94;;;22.44;34.58
12213;BME280;6169;44.158;22.788;2023-09-30T22:44:50;101340.59;;;22.39;35.17
12213;BME280;6169;44.158;22.788;2023-09-30T22:49:53;101350.56;;;22.40;34.57
12213;BME280;6169;44.158;22.788;2023-09-30T22:54:56;101351.19;;;22.18;34.74
12213;BME280;6169;44.158;22.788;2023-09-30T23:00:00;101353.31;;;21.83;35.25
12213;BME280;6169;44.158;22.788;2023-09-30T23:05:08;101345.56;;;21.62;35.27
12213;BME280;6169;44.158;22.788;2023-09-30T23:10:16;101338.06;;;21.38;35.61
12213;BME280;6169;44.158;22.788;2023-09-30T23:15:20;101346.41;;;21.62;35.94
12213;BME280;6169;44.158;22.788;2023-09-30T23:20:23;101342.59;;;21.77;35.02
12213;BME280;6169;44.158;22.788;2023-09-30T23:25:28;101348.25;;;21.43;36.12
12213;BME280;6169;44.158;22.788;2023-09-30T23:30:35;101341.75;;;21.33;35.74
12213;BME280;6169;44.158;22.788;2023-09-30T23:35:38;101346.84;;;21.21;36.70
12213;BME280;6169;44.158;22.788;2023-09-30T23:40:42;101341.88;;;20.94;37.32
12213;BME280;6169;44.158;22.788;2023-09-30T23:45:46;101335.09;;;21.10;36.22
12213;BME280;6169;44.158;22.788;2023-09-30T23:50:49;101346.34;;;20.90;37.02
12213;BME280;6169;44.158;22.788;2023-09-30T23:55:55;101337.31;;;21.08;36.61
